地図

経路データ

SID SEASON NUMBER BASIN SUBBASIN NAME ISO_TIME NATURE LAT LON WMO_WIND WMO_PRES WMO_AGENCY TRACK_TYPE DIST2LAND LANDFALL IFLAG USA_AGENCY USA_ATCF_ID USA_LAT USA_LON USA_RECORD USA_STATUS USA_WIND USA_PRES USA_SSHS USA_R34_NE USA_R34_SE USA_R34_SW USA_R34_NW USA_R50_NE USA_R50_SE USA_R50_SW USA_R50_NW USA_R64_NE USA_R64_SE USA_R64_SW USA_R64_NW USA_POCI USA_ROCI USA_RMW USA_EYE TOKYO_LAT TOKYO_LON TOKYO_GRADE TOKYO_WIND TOKYO_PRES TOKYO_R50_DIR TOKYO_R50_LONG TOKYO_R50_SHORT TOKYO_R30_DIR TOKYO_R30_LONG TOKYO_R30_SHORT TOKYO_LAND CMA_LAT CMA_LON CMA_CAT CMA_WIND CMA_PRES HKO_LAT HKO_LON HKO_CAT HKO_WIND HKO_PRES NEWDELHI_LAT NEWDELHI_LON NEWDELHI_GRADE NEWDELHI_WIND NEWDELHI_PRES NEWDELHI_CI NEWDELHI_DP NEWDELHI_POCI REUNION_LAT REUNION_LON REUNION_TYPE REUNION_WIND REUNION_PRES REUNION_TNUM REUNION_CI REUNION_RMW REUNION_R34_NE REUNION_R34_SE REUNION_R34_SW REUNION_R34_NW REUNION_R50_NE REUNION_R50_SE REUNION_R50_SW REUNION_R50_NW REUNION_R64_NE REUNION_R64_SE REUNION_R64_SW REUNION_R64_NW BOM_LAT BOM_LON BOM_TYPE BOM_WIND BOM_PRES BOM_TNUM BOM_CI BOM_RMW BOM_R34_NE BOM_R34_SE BOM_R34_SW BOM_R34_NW BOM_R50_NE BOM_R50_SE BOM_R50_SW BOM_R50_NW BOM_R64_NE BOM_R64_SE BOM_R64_SW BOM_R64_NW BOM_ROCI BOM_POCI BOM_EYE BOM_POS_METHOD BOM_PRES_METHOD NADI_LAT NADI_LON NADI_CAT NADI_WIND NADI_PRES WELLINGTON_LAT WELLINGTON_LON WELLINGTON_WIND WELLINGTON_PRES DS824_LAT DS824_LON DS824_STAGE DS824_WIND DS824_PRES TD9636_LAT TD9636_LON TD9636_STAGE TD9636_WIND TD9636_PRES TD9635_LAT TD9635_LON TD9635_WIND TD9635_PRES TD9635_ROCI NEUMANN_LAT NEUMANN_LON NEUMANN_CLASS NEUMANN_WIND NEUMANN_PRES MLC_LAT MLC_LON MLC_CLASS MLC_WIND MLC_PRES USA_GUST BOM_GUST BOM_GUST_PER REUNION_GUST REUNION_GUST_PER USA_SEAHGT USA_SEARAD_NE USA_SEARAD_SE USA_SEARAD_SW USA_SEARAD_NW STORM_SPEED STORM_DIR
1925234N20116 1925 40 WP MM NOT_NAMED 1925-08-21 22:00:00 NR 20.0000 116.100 main 303 301 __________O___ -1 20.0000 116.100 2 5 236
1925234N20116 1925 40 WP MM NOT_NAMED 1925-08-22 00:00:00 NR 19.9086 115.952 main 312 308 __________P___ -1 19.9086 115.952 2 5 237
1925234N20116 1925 40 WP MM NOT_NAMED 1925-08-22 03:00:00 NR 19.7683 115.722 main 313 313 __________P___ -1 19.7683 115.722 2 5 237
1925234N20116 1925 40 WP MM NOT_NAMED 1925-08-22 06:00:00 NR 19.6196 115.475 main 326 322 __________P___ -1 19.6196 115.475 2 6 238
1925234N20116 1925 40 WP MM NOT_NAMED 1925-08-22 09:00:00 NR 19.4577 115.200 main 326 334 __________P___ -1 19.4577 115.200 2 6 238
1925234N20116 1925 40 WP MM NOT_NAMED 1925-08-22 10:00:00 NR 19.4000 115.100 main 334 332 __________O___ -1 19.4000 115.100 2 7 239
1925234N20116 1925 40 WP MM NOT_NAMED 1925-08-22 12:00:00 NR 19.2787 114.887 main 341 341 __________P___ -1 19.2787 114.887 2 7 239
1925234N20116 1925 40 WP MM NOT_NAMED 1925-08-22 15:00:00 NR 19.0902 114.549 main 349 344 __________P___ -1 19.0902 114.549 2 7 240
1925234N20116 1925 40 WP MM NOT_NAMED 1925-08-22 18:00:00 NR 18.9075 114.210 main 344 317 __________P___ -1 18.9075 114.210 2 7 241
1925234N20116 1925 40 WP MM NOT_NAMED 1925-08-22 21:00:00 NR 18.7462 113.895 main 320 310 __________P___ -1 18.7462 113.895 2 7 242
1925234N20116 1925 40 WP MM NOT_NAMED 1925-08-22 22:00:00 NR 18.7000 113.800 main 310 295 __________O___ -1 18.7000 113.800 2 5 244
1925234N20116 1925 40 WP MM NOT_NAMED 1925-08-23 00:00:00 NR 18.6295 113.644 main 295 280 __________P___ -1 18.6295 113.644 2 4 246
1925234N20116 1925 40 WP MM NOT_NAMED 1925-08-23 03:00:00 NR 18.5493 113.441 main 280 271 __________P___ -1 18.5493 113.441 2 4 249
1925234N20116 1925 40 WP MM NOT_NAMED 1925-08-23 06:00:00 NR 18.4858 113.256 main 271 258 __________P___ -1 18.4858 113.256 2 4 250
1925234N20116 1925 40 WP MM NOT_NAMED 1925-08-23 09:00:00 NR 18.4233 113.067 main 258 249 __________P___ -1 18.4233 113.067 2 4 251
1925234N20116 1925 40 WP MM NOT_NAMED 1925-08-23 10:00:00 NR 18.4000 113.000 main 249 238 __________O___ -1 18.4000 113.000 2 5 249
1925234N20116 1925 40 WP MM NOT_NAMED 1925-08-23 12:00:00 NR 18.3391 112.842 main 238 222 __________P___ -1 18.3391 112.842 2 5 248
1925234N20116 1925 40 WP MM NOT_NAMED 1925-08-23 15:00:00 NR 18.2413 112.593 main 229 205 __________P___ -1 18.2413 112.593 2 5 247
1925234N20116 1925 40 WP MM NOT_NAMED 1925-08-23 18:00:00 NR 18.1388 112.336 main 205 186 __________P___ -1 18.1388 112.336 2 5 247
1925234N20116 1925 40 WP MM NOT_NAMED 1925-08-23 21:00:00 NR 18.0346 112.082 main 191 181 __________P___ -1 18.0346 112.082 2 5 246
1925234N20116 1925 40 WP MM NOT_NAMED 1925-08-23 22:00:00 NR 18.0000 112.000 main 181 170 __________O___ -1 18.0000 112.000 2 5 245
1925234N20116 1925 40 WP MM NOT_NAMED 1925-08-24 00:00:00 NR 17.9306 111.844 main 170 161 __________P___ -1 17.9306 111.844 2 5 245
1925234N20116 1925 40 WP MM NOT_NAMED 1925-08-24 03:00:00 NR 17.8266 111.617 main 161 153 __________P___ -1 17.8266 111.617 2 5 244
1925234N20116 1925 40 WP MM NOT_NAMED 1925-08-24 06:00:00 NR 17.7253 111.395 main 153 140 __________P___ -1 17.7253 111.395 2 5 245
1925234N20116 1925 40 WP MM NOT_NAMED 1925-08-24 09:00:00 NR 17.6299 111.174 main 149 143 __________P___ -1 17.6299 111.174 2 5 246
1925234N20116 1925 40 WP MM NOT_NAMED 1925-08-24 10:00:00 NR 17.6000 111.100 main 143 138 __________O___ -1 17.6000 111.100 2 5 248
1925234N20116 1925 40 WP MM NOT_NAMED 1925-08-24 12:00:00 NR 17.5442 110.953 main 146 125 __________P___ -1 17.5442 110.953 2 5 249
1925234N20116 1925 40 WP MM NOT_NAMED 1925-08-24 15:00:00 NR 17.4669 110.732 main 125 123 __________P___ -1 17.4669 110.732 2 5 251
1925234N20116 1925 40 WP MM NOT_NAMED 1925-08-24 18:00:00 NR 17.3944 110.508 main 123 116 __________P___ -1 17.3944 110.508 2 5 252
1925234N20116 1925 40 WP MM NOT_NAMED 1925-08-24 21:00:00 NR 17.3237 110.278 main 119 113 __________P___ -1 17.3237 110.278 2 5 252
1925234N20116 1925 40 WP MM NOT_NAMED 1925-08-24 22:00:00 NR 17.3000 110.200 main 113 109 __________O___ -1 17.3000 110.200 2 5 251
1925234N20116 1925 40 WP MM NOT_NAMED 1925-08-25 00:00:00 NR 17.2473 110.039 main 116 112 __________P___ -1 17.2473 110.039 2 5 251
1925234N20116 1925 40 WP MM NOT_NAMED 1925-08-25 03:00:00 NR 17.1683 109.791 main 112 111 __________P___ -1 17.1683 109.791 2 5 252
1925234N20116 1925 40 WP MM NOT_NAMED 1925-08-25 06:00:00 NR 17.0920 109.539 main 123 123 __________P___ -1 17.0920 109.539 2 5 253
1925234N20116 1925 40 WP MM NOT_NAMED 1925-08-25 09:00:00 NR 17.0216 109.285 main 135 135 __________P___ -1 17.0216 109.285 2 5 254
1925234N20116 1925 40 WP MM NOT_NAMED 1925-08-25 10:00:00 NR 17.0000 109.200 main 137 131 __________O___ -1 17.0000 109.200 2 5 256
1925234N20116 1925 40 WP MM NOT_NAMED 1925-08-25 12:00:00 NR 16.9599 109.032 main 131 108 __________P___ -1 16.9599 109.032 2 5 257
1925234N20116 1925 40 WP MM NOT_NAMED 1925-08-25 15:00:00 NR 16.9066 108.781 main 108 89 __________P___ -1 16.9066 108.781 2 5 258
1925234N20116 1925 40 WP MM NOT_NAMED 1925-08-25 18:00:00 NR 16.8590 108.531 main 89 69 __________P___ -1 16.8590 108.531 2 5 259
1925234N20116 1925 40 WP MM NOT_NAMED 1925-08-25 21:00:00 NR 16.8146 108.283 main 69 61 __________P___ -1 16.8146 108.283 2 5 259
1925234N20116 1925 40 WP MM NOT_NAMED 1925-08-25 22:00:00 NR 16.8000 108.200 main 61 __________O___ -1 16.8000 108.200 7 5 259

デジタル台風データ・検索

IBTrACS Databaseについて

本データベースは、米国NOAAが公開する1842年以降の世界の熱帯低気圧のベストトラックデータアーカイブInternational Best Track Archive for Climate Stewardship (IBTrACS)を、ウェブで閲覧しやすい形式に変換したものです。

最終更新日:2021-12-03